Time;durP1;ratioP1;P1;durP2;ratioP2;P2;SDS_P1;SDS_P2;PMS_P1;PMS_P2;Temp;Humidity;BMP_temperature;BMP_pressure;BME280_temperature;BME280_humidity;BME280_pressure;Samples;Min_cycle;Max_cycle;Signal;HPM_P1;HPM_P2
2022/06/02 00:00:24;;;;;;;2.00;1.05;;;18.40;91.00;;;;;;7387572;19;20264;-75
2022/06/02 00:03:18;;;;;;;1.50;0.65;;;18.50;90.90;;;;;;7386803;19;20704;-75
2022/06/02 00:06:11;;;;;;;0.88;0.70;;;18.40;90.90;;;;;;7390413;19;20538;-75
2022/06/02 00:09:10;;;;;;;1.90;0.77;;;18.40;91.10;;;;;;7387292;19;20138;-75
2022/06/02 00:11:48;;;;;;;0.90;0.77;;;18.40;91.10;;;;;;7388361;19;20147;-75
2022/06/02 00:15:02;;;;;;;1.98;1.00;;;18.40;90.90;;;;;;7388002;19;20131;-76
2022/06/02 00:17:53;;;;;;;1.10;0.65;;;18.30;91.00;;;;;;7383256;19;20162;-75
2022/06/02 00:20:29;;;;;;;0.80;0.60;;;18.30;91.00;;;;;;7384157;19;20272;-75
2022/06/02 00:23:04;;;;;;;0.82;0.65;;;18.30;91.20;;;;;;7388984;19;20138;-75
2022/06/02 00:25:36;;;;;;;1.95;0.70;;;18.30;91.40;;;;;;7387309;19;20150;-76
2022/06/02 00:28:23;;;;;;;0.65;0.57;;;18.20;91.10;;;;;;7386829;19;20166;-75
2022/06/02 00:30:54;;;;;;;1.38;0.80;;;18.20;91.10;;;;;;7386810;19;20167;-75
2022/06/02 00:33:45;;;;;;;1.10;0.90;;;18.10;91.30;;;;;;7389991;19;20202;-74
2022/06/02 00:36:23;;;;;;;1.35;0.80;;;18.10;91.70;;;;;;7388405;19;20145;-75
2022/06/02 00:38:50;;;;;;;1.55;1.00;;;18.10;91.20;;;;;;7389053;19;20158;-74
2022/06/02 00:41:31;;;;;;;2.33;0.80;;;18.10;91.40;;;;;;7387838;19;20643;-74
2022/06/02 00:44:34;;;;;;;1.13;0.73;;;18.00;91.40;;;;;;7385950;19;20145;-75
2022/06/02 00:47:26;;;;;;;1.00;0.55;;;18.00;91.50;;;;;;7386250;19;20146;-74
2022/06/02 00:50:04;;;;;;;1.75;0.60;;;18.10;91.60;;;;;;7390821;19;20139;-75
2022/06/02 00:52:37;;;;;;;3.55;1.10;;;18.10;91.60;;;;;;7391861;19;20142;-74
2022/06/02 00:58:50;;;;;;;2.42;0.85;;;18.00;91.60;;;;;;7394955;19;20487;-76
2022/06/02 01:01:25;;;;;;;2.65;0.75;;;18.00;91.80;;;;;;7393557;19;20151;-75
2022/06/02 01:03:54;;;;;;;2.03;1.20;;;18.00;91.70;;;;;;7392774;19;20185;-75
2022/06/02 01:06:49;;;;;;;2.13;0.90;;;18.00;91.90;;;;;;7393805;19;20635;-75
2022/06/02 01:09:33;;;;;;;1.48;0.90;;;18.00;91.80;;;;;;7392618;19;20138;-75
2022/06/02 01:11:59;;;;;;;1.00;0.60;;;18.00;91.90;;;;;;7390822;19;20165;-75
2022/06/02 01:14:42;;;;;;;1.58;0.70;;;18.00;91.70;;;;;;7389789;19;20206;-76
2022/06/02 01:17:25;;;;;;;1.20;0.77;;;18.00;92.00;;;;;;7389376;19;20270;-76
2022/06/02 01:20:20;;;;;;;1.52;0.82;;;18.00;91.90;;;;;;7391044;19;20142;-75
2022/06/02 01:23:14;;;;;;;1.27;0.73;;;17.90;92.30;;;;;;7389025;19;20213;-75
2022/06/02 01:26:08;;;;;;;0.50;0.50;;;17.90;92.10;;;;;;7392102;19;20475;-74
2022/06/02 01:28:46;;;;;;;1.45;0.80;;;17.90;92.10;;;;;;7391840;19;20126;-74
2022/06/02 01:31:39;;;;;;;0.80;0.80;;;17.80;92.30;;;;;;7395507;19;20181;-75
2022/06/02 01:34:21;;;;;;;1.67;0.82;;;17.90;92.20;;;;;;7395315;19;20131;-75
2022/06/02 01:36:57;;;;;;;0.93;0.77;;;17.80;92.30;;;;;;7391638;19;20130;-75
2022/06/02 01:39:51;;;;;;;1.80;0.73;;;17.80;92.40;;;;;;7392553;19;20137;-74
2022/06/02 01:42:37;;;;;;;1.10;0.70;;;17.70;92.50;;;;;;7395332;19;20237;-74
2022/06/02 01:45:21;;;;;;;0.80;0.70;;;17.70;92.40;;;;;;7390951;19;20151;-75
2022/06/02 01:48:01;;;;;;;1.40;0.57;;;17.70;92.50;;;;;;7392199;19;20165;-74
2022/06/02 01:50:51;;;;;;;0.88;0.65;;;17.60;92.70;;;;;;7394195;19;20141;-75
2022/06/02 01:53:58;;;;;;;1.52;0.80;;;17.60;92.70;;;;;;7391927;19;20214;-75
2022/06/02 01:56:39;;;;;;;1.73;0.80;;;17.60;92.80;;;;;;7393578;19;20201;-75
2022/06/02 01:59:42;;;;;;;1.45;0.93;;;17.50;92.80;;;;;;7390959;19;20593;-75
2022/06/02 02:02:14;;;;;;;1.50;0.80;;;17.40;93.00;;;;;;7391621;19;20145;-76
2022/06/02 02:05:04;;;;;;;0.88;0.70;;;17.40;93.20;;;;;;7390597;19;20150;-75
2022/06/02 02:07:39;;;;;;;0.60;0.60;;;17.40;93.10;;;;;;7391426;19;20146;-75
2022/06/02 02:10:17;;;;;;;3.67;0.88;;;17.30;93.20;;;;;;7389806;19;20504;-75
2022/06/02 02:12:55;;;;;;;0.80;0.63;;;17.30;93.30;;;;;;7393568;19;20165;-74
2022/06/02 02:15:42;;;;;;;1.65;0.80;;;17.30;93.40;;;;;;7393336;19;20167;-75
2022/06/02 02:18:19;;;;;;;1.88;0.82;;;17.20;93.40;;;;;;7388117;19;20170;-74
2022/06/02 02:21:12;;;;;;;0.93;0.70;;;17.30;93.40;;;;;;7389659;19;20154;-74
2022/06/02 02:24:17;;;;;;;0.73;0.70;;;17.40;93.40;;;;;;7390898;19;20138;-76
2022/06/02 02:26:53;;;;;;;2.10;0.60;;;17.40;93.40;;;;;;7390443;19;20162;-76
2022/06/02 02:29:42;;;;;;;1.17;0.77;;;17.40;93.50;;;;;;7392324;19;20175;-75
2022/06/02 02:32:40;;;;;;;1.20;0.80;;;17.40;93.60;;;;;;7390066;19;20168;-75
2022/06/02 02:35:25;;;;;;;1.27;0.85;;;17.40;93.60;;;;;;7389583;19;20138;-75
2022/06/02 02:38:01;;;;;;;1.08;0.70;;;17.30;93.70;;;;;;7390849;19;20150;-75
2022/06/02 02:40:43;;;;;;;0.82;0.70;;;17.30;93.70;;;;;;7385491;19;20227;-75
2022/06/02 02:43:38;;;;;;;1.50;0.68;;;17.30;93.70;;;;;;7387120;19;20139;-75
2022/06/02 02:46:17;;;;;;;2.17;0.82;;;17.30;93.70;;;;;;7390713;19;20139;-75
2022/06/02 02:49:02;;;;;;;1.23;0.90;;;17.30;93.80;;;;;;7389115;19;20151;-75
2022/06/02 02:51:57;;;;;;;2.80;0.70;;;17.30;93.70;;;;;;7391664;19;20147;-76
2022/06/02 02:54:42;;;;;;;0.82;0.75;;;17.30;93.70;;;;;;7389563;19;20606;-76
2022/06/02 02:57:31;;;;;;;3.03;0.95;;;17.20;93.70;;;;;;7389282;19;20122;-76
2022/06/02 03:00:17;;;;;;;1.75;0.93;;;17.20;93.80;;;;;;7390939;19;20150;-74
2022/06/02 03:03:08;;;;;;;1.63;0.73;;;17.20;93.90;;;;;;7389359;19;20142;-75
2022/06/02 03:06:03;;;;;;;0.80;0.68;;;17.10;94.00;;;;;;7387162;19;20135;-75
2022/06/02 03:08:38;;;;;;;0.75;0.60;;;17.10;94.00;;;;;;7390434;19;20155;-75
2022/06/02 03:11:20;;;;;;;1.63;0.77;;;17.10;94.10;;;;;;7389333;19;20138;-76
2022/06/02 03:14:10;;;;;;;0.88;0.65;;;17.00;94.20;;;;;;7387759;19;20165;-76
2022/06/02 03:16:38;;;;;;;0.68;0.60;;;17.10;94.20;;;;;;7386325;19;20160;-75
2022/06/02 03:19:30;;;;;;;0.68;0.60;;;17.10;94.20;;;;;;7388546;19;20138;-74
2022/06/02 03:22:23;;;;;;;0.88;0.60;;;17.10;94.20;;;;;;7386491;19;20161;-76
2022/06/02 03:24:58;;;;;;;1.13;0.77;;;17.20;94.00;;;;;;7390418;19;20154;-75
2022/06/02 03:27:58;;;;;;;2.45;1.67;;;17.20;93.90;;;;;;7388245;19;20165;-75
2022/06/02 03:30:29;;;;;;;3.33;0.77;;;17.20;94.00;;;;;;7391106;19;20135;-75
2022/06/02 03:33:09;;;;;;;1.45;0.80;;;17.10;94.20;;;;;;7386541;19;21618;-75
2022/06/02 03:35:50;;;;;;;1.52;1.05;;;17.10;94.10;;;;;;7387210;19;20150;-76
2022/06/02 03:38:34;;;;;;;2.58;0.77;;;17.00;94.10;;;;;;7389093;19;20612;-75
2022/06/02 03:41:20;;;;;;;0.77;0.75;;;17.00;94.10;;;;;;7389550;19;20130;-76
2022/06/02 03:44:11;;;;;;;0.90;0.60;;;17.10;94.20;;;;;;7387281;19;20217;-75
2022/06/02 03:46:59;;;;;;;0.90;0.70;;;17.10;94.20;;;;;;7388731;19;20146;-76
2022/06/02 03:49:47;;;;;;;0.77;0.75;;;17.10;94.10;;;;;;7390413;19;20142;-76
2022/06/02 03:52:41;;;;;;;0.80;0.80;;;17.10;94.20;;;;;;7387751;19;20617;-75
2022/06/02 03:55:35;;;;;;;0.77;0.55;;;17.20;94.00;;;;;;7384246;19;20156;-75
2022/06/02 03:58:03;;;;;;;1.38;0.90;;;17.20;94.10;;;;;;7389052;19;20152;-74
2022/06/02 04:00:43;;;;;;;1.95;0.70;;;17.20;94.00;;;;;;7386368;19;20156;-76
2022/06/02 04:03:15;;;;;;;1.08;0.80;;;17.10;94.10;;;;;;7387172;19;20182;-75
2022/06/02 04:05:56;;;;;;;0.70;0.70;;;17.00;94.30;;;;;;7388710;19;20606;-75
2022/06/02 04:08:54;;;;;;;0.93;0.70;;;17.10;94.20;;;;;;7386789;19;20131;-75
2022/06/02 04:11:22;;;;;;;0.90;0.90;;;17.20;93.90;;;;;;7386919;19;20158;-73
2022/06/02 04:14:06;;;;;;;3.30;1.20;;;17.20;93.90;;;;;;7387287;19;20182;-76
2022/06/02 04:16:58;;;;;;;0.80;0.80;;;17.20;94.00;;;;;;7384285;19;20210;-75
2022/06/02 04:22:41;;;;;;;1.08;0.90;;;17.10;93.80;;;;;;7388403;19;20641;-75
2022/06/02 04:25:28;;;;;;;2.67;1.00;;;17.10;93.90;;;;;;7397700;19;20498;-74
2022/06/02 04:28:48;;;;;;;1.70;0.82;;;17.00;93.90;;;;;;7395048;19;20137;-75
2022/06/02 04:31:32;;;;;;;1.15;1.00;;;16.90;94.10;;;;;;7388003;19;20167;-75
2022/06/02 04:34:05;;;;;;;2.15;0.80;;;16.90;94.10;;;;;;7393980;19;20149;-75
2022/06/02 04:37:05;;;;;;;1.50;0.90;;;16.90;94.20;;;;;;7394304;19;20869;-76
2022/06/02 04:39:41;;;;;;;0.77;0.63;;;16.80;94.60;;;;;;7392057;19;20485;-74
2022/06/02 04:42:32;;;;;;;1.23;0.70;;;17.00;94.20;;;;;;7393179;19;20154;-75
2022/06/02 04:45:17;;;;;;;1.27;1.00;;;17.10;94.20;;;;;;7389539;19;20139;-76
2022/06/02 04:47:53;;;;;;;0.70;0.70;;;17.10;94.30;;;;;;7395939;19;20139;-75
2022/06/02 04:50:41;;;;;;;1.00;0.90;;;17.20;94.20;;;;;;7393251;19;20178;-75
2022/06/02 04:53:26;;;;;;;1.88;0.85;;;17.20;94.20;;;;;;7394550;19;20213;-75
2022/06/02 04:56:06;;;;;;;2.78;0.88;;;17.10;94.20;;;;;;7392684;19;20159;-75
2022/06/02 04:58:50;;;;;;;3.40;1.00;;;17.10;94.50;;;;;;7393871;19;20482;-75
2022/06/02 05:01:48;;;;;;;1.52;0.80;;;17.10;94.40;;;;;;7395684;19;20168;-76
2022/06/02 05:04:51;;;;;;;3.13;1.60;;;16.90;94.80;;;;;;7388778;19;20206;-75
2022/06/02 05:07:54;;;;;;;1.50;1.30;;;17.10;94.40;;;;;;7394867;19;20198;-75
2022/06/02 05:10:43;;;;;;;0.98;0.90;;;17.10;94.90;;;;;;7394963;19;20147;-74
2022/06/02 05:13:31;;;;;;;2.30;1.10;;;17.40;94.50;;;;;;7391302;19;20494;-75
2022/06/02 05:16:00;;;;;;;0.95;0.80;;;17.50;94.30;;;;;;7392245;19;20166;-74
2022/06/02 05:19:02;;;;;;;2.65;0.90;;;17.40;94.40;;;;;;7390904;19;20150;-74
2022/06/02 05:21:50;;;;;;;1.35;1.00;;;17.40;94.40;;;;;;7393374;19;20182;-73
2022/06/02 05:24:34;;;;;;;1.45;0.90;;;17.40;94.50;;;;;;7393057;19;20535;-74
2022/06/02 05:27:24;;;;;;;2.88;0.80;;;17.40;94.50;;;;;;7393547;19;20134;-74
2022/06/02 05:30:02;;;;;;;1.30;0.85;;;17.50;94.30;;;;;;7393991;19;20138;-74
2022/06/02 05:32:37;;;;;;;1.02;0.70;;;17.60;94.30;;;;;;7391931;19;20210;-74
2022/06/02 05:35:31;;;;;;;1.67;0.90;;;17.60;94.20;;;;;;7391024;19;20164;-74
2022/06/02 05:38:30;;;;;;;1.02;0.80;;;17.60;94.20;;;;;;7390876;19;20151;-73
2022/06/02 05:40:59;;;;;;;0.90;0.77;;;17.60;94.20;;;;;;7393430;19;20155;-73
2022/06/02 05:43:42;;;;;;;1.08;0.95;;;17.60;94.20;;;;;;7389488;19;20133;-74
2022/06/02 05:46:17;;;;;;;3.08;1.08;;;17.60;93.90;;;;;;7388817;19;20163;-74
2022/06/02 05:49:04;;;;;;;1.00;0.75;;;17.50;93.60;;;;;;7383795;19;20619;-75
2022/06/02 05:51:52;;;;;;;1.33;0.82;;;17.50;93.70;;;;;;7388115;19;20173;-76
2022/06/02 05:54:39;;;;;;;1.33;0.90;;;17.70;93.20;;;;;;7387225;19;20436;-72
2022/06/02 05:57:43;;;;;;;1.73;1.05;;;17.60;92.90;;;;;;7386907;19;20395;-72
2022/06/02 06:00:50;;;;;;;1.10;0.90;;;17.70;93.00;;;;;;7381155;19;20408;-73
2022/06/02 06:04:00;;;;;;;1.50;0.90;;;17.80;92.70;;;;;;7380431;19;20158;-71
2022/06/02 06:06:26;;;;;;;1.02;0.80;;;17.70;92.90;;;;;;7387029;19;20143;-73
2022/06/02 06:09:03;;;;;;;2.00;1.02;;;17.70;93.00;;;;;;7388717;19;20138;-74
2022/06/02 06:11:49;;;;;;;2.17;1.13;;;17.80;93.00;;;;;;7393233;19;20593;-82
2022/06/02 06:14:45;;;;;;;3.00;1.15;;;18.10;92.80;;;;;;7390108;19;20209;-72
2022/06/02 06:17:17;;;;;;;1.67;1.10;;;18.60;92.20;;;;;;7387409;19;20241;-75
2022/06/02 06:20:12;;;;;;;0.82;0.77;;;18.90;91.90;;;;;;7388087;19;20146;-75
2022/06/02 06:23:00;;;;;;;5.40;2.95;;;19.60;92.20;;;;;;7389760;19;20146;-75
2022/06/02 06:25:40;;;;;;;2.78;1.02;;;20.70;90.80;;;;;;7392760;19;20139;-75
2022/06/02 06:28:20;;;;;;;2.30;1.10;;;21.40;90.00;;;;;;7391345;19;20515;-73
2022/06/02 06:30:55;;;;;;;1.20;0.95;;;21.40;87.50;;;;;;7389149;19;20213;-75
2022/06/02 06:33:45;;;;;;;1.55;1.05;;;21.30;87.70;;;;;;7388725;19;20395;-74
2022/06/02 06:36:30;;;;;;;2.47;1.00;;;21.50;87.30;;;;;;7387490;19;20145;-75
2022/06/02 06:39:14;;;;;;;4.53;1.00;;;21.70;86.90;;;;;;7389385;19;20157;-72
2022/06/02 06:41:59;;;;;;;1.90;1.20;;;21.70;86.30;;;;;;7387283;19;20394;-72
2022/06/02 06:44:43;;;;;;;2.63;2.03;;;21.70;86.70;;;;;;7388726;19;20444;-75
2022/06/02 06:47:39;;;;;;;2.40;1.20;;;21.90;86.60;;;;;;7386147;19;20150;-72
2022/06/02 06:50:21;;;;;;;1.30;0.85;;;21.70;86.00;;;;;;7391304;19;20142;-72
2022/06/02 06:53:19;;;;;;;1.67;1.10;;;21.90;86.40;;;;;;7391767;19;20159;-75
2022/06/02 06:55:53;;;;;;;1.90;1.20;;;22.20;84.80;;;;;;7386471;19;20427;-72
2022/06/02 06:58:40;;;;;;;1.85;1.27;;;22.40;84.90;;;;;;7387353;19;20411;-74
2022/06/02 07:01:24;;;;;;;1.98;1.25;;;22.50;85.00;;;;;;7385429;19;20134;-72
2022/06/02 07:04:15;;;;;;;3.95;0.93;;;22.50;84.40;;;;;;7386912;19;20182;-72
2022/06/02 07:06:46;;;;;;;1.58;1.08;;;22.50;83.90;;;;;;7386096;19;20172;-73
2022/06/02 07:09:29;;;;;;;3.00;1.08;;;22.60;83.70;;;;;;7388892;19;20142;-72
2022/06/02 07:15:20;;;;;;;3.95;1.10;;;22.40;84.30;;;;;;7389828;19;20837;-73
2022/06/02 07:18:18;;;;;;;1.10;0.85;;;22.60;84.20;;;;;;7388038;19;20155;-74
2022/06/02 07:20:50;;;;;;;1.52;1.00;;;22.60;84.10;;;;;;7389521;19;20146;-74
2022/06/02 07:23:47;;;;;;;2.75;1.15;;;22.50;84.30;;;;;;7389400;19;20135;-74
2022/06/02 07:26:12;;;;;;;4.40;1.10;;;22.50;84.10;;;;;;7387874;19;20151;-73
2022/06/02 07:29:15;;;;;;;1.60;1.05;;;22.50;83.80;;;;;;7388151;19;20138;-75
2022/06/02 07:32:05;;;;;;;2.90;1.40;;;22.60;83.50;;;;;;7387732;19;20393;-75
2022/06/02 07:35:05;;;;;;;1.67;1.10;;;22.60;83.70;;;;;;7386779;19;20157;-76
2022/06/02 07:37:58;;;;;;;1.45;0.98;;;22.60;83.80;;;;;;7386899;19;20138;-75
2022/06/02 07:40:42;;;;;;;1.35;0.90;;;23.00;83.30;;;;;;7389452;19;20141;-74
2022/06/02 07:43:26;;;;;;;2.08;1.05;;;23.00;83.00;;;;;;7390300;19;20138;-75
2022/06/02 07:46:01;;;;;;;1.27;0.90;;;23.00;83.20;;;;;;7389143;19;20176;-74
2022/06/02 07:48:35;;;;;;;5.43;1.17;;;23.20;83.70;;;;;;7390050;19;20144;-72
2022/06/02 07:51:06;;;;;;;1.98;0.95;;;23.60;81.90;;;;;;7392183;19;20166;-73
2022/06/02 07:53:56;;;;;;;2.08;0.93;;;23.10;82.30;;;;;;7389714;19;20146;-74
2022/06/02 07:57:05;;;;;;;2.10;1.15;;;22.80;82.70;;;;;;7389135;19;20139;-74
2022/06/02 07:59:43;;;;;;;4.88;1.77;;;22.70;83.00;;;;;;7391639;19;20138;-74
2022/06/02 08:02:14;;;;;;;3.55;1.20;;;22.90;83.00;;;;;;7397323;19;20594;-72
2022/06/02 08:04:43;;;;;;;2.58;1.17;;;23.10;82.70;;;;;;7394402;19;20155;-74
2022/06/02 08:07:40;;;;;;;3.03;1.08;;;23.30;82.70;;;;;;7395072;19;20193;-73
2022/06/02 08:10:14;;;;;;;2.60;0.60;;;23.90;79.50;;;;;;7396971;19;20211;-74
2022/06/02 08:13:08;;;;;;;1.42;0.82;;;24.40;78.90;;;;;;7394941;19;20142;-74
2022/06/02 08:15:47;;;;;;;2.00;1.00;;;24.20;78.40;;;;;;7395712;19;20143;-70
2022/06/02 08:18:31;;;;;;;3.03;2.20;;;24.40;77.90;;;;;;7394459;19;20173;-72
2022/06/02 08:21:22;;;;;;;2.40;0.90;;;24.80;77.70;;;;;;7396698;19;20141;-72
2022/06/02 08:24:09;;;;;;;2.80;1.02;;;24.90;77.10;;;;;;7394371;19;20155;-71
2022/06/02 08:27:07;;;;;;;1.88;0.98;;;25.00;76.60;;;;;;7395311;19;20131;-71
2022/06/02 08:30:00;;;;;;;1.88;1.00;;;24.80;76.30;;;;;;7390770;19;20202;-74
2022/06/02 08:32:32;;;;;;;1.70;0.80;;;24.60;76.60;;;;;;7396896;19;20130;-72
2022/06/02 08:35:20;;;;;;;0.95;0.85;;;24.60;76.80;;;;;;7393747;19;20145;-72
2022/06/02 08:38:00;;;;;;;1.70;1.55;;;24.80;76.60;;;;;;7393951;19;20501;-71
2022/06/02 08:44:19;;;;;;;1.88;1.10;;;25.10;75.60;;;;;;7391381;19;20134;-72
2022/06/02 08:47:22;;;;;;;5.82;3.95;;;24.30;77.50;;;;;;7397342;19;20202;-71
2022/06/02 08:49:51;;;;;;;2.10;0.95;;;23.70;78.80;;;;;;7392529;19;20213;-71
2022/06/02 08:52:32;;;;;;;2.65;1.23;;;23.30;80.00;;;;;;7395898;19;20134;-73
2022/06/02 08:55:20;;;;;;;1.70;1.13;;;23.00;80.80;;;;;;7396293;19;20130;-73
2022/06/02 08:58:01;;;;;;;6.80;0.95;;;23.30;81.20;;;;;;7394612;19;20142;-72
2022/06/02 09:00:51;;;;;;;2.58;1.35;;;23.60;80.60;;;;;;7392874;19;20148;-73
2022/06/02 09:03:55;;;;;;;3.35;1.15;;;23.80;79.90;;;;;;7389667;19;20212;-71
2022/06/02 09:06:33;;;;;;;4.35;1.15;;;24.10;79.50;;;;;;7384114;19;20141;-71
2022/06/02 09:09:23;;;;;;;0.90;0.80;;;23.60;80.40;;;;;;7380833;19;20135;-72
2022/06/02 09:12:17;;;;;;;0.60;0.60;;;23.60;79.60;;;;;;7384829;19;20260;-72
2022/06/02 09:14:51;;;;;;;2.03;0.90;;;23.90;79.40;;;;;;7381576;19;20155;-72
2022/06/02 09:17:53;;;;;;;1.73;0.85;;;24.00;78.80;;;;;;7382283;19;20174;-71
2022/06/02 09:20:28;;;;;;;1.20;0.77;;;23.90;79.20;;;;;;7387721;19;20138;-71
2022/06/02 09:23:19;;;;;;;1.48;0.95;;;23.60;78.90;;;;;;7393412;19;20777;-73
2022/06/02 09:26:05;;;;;;;1.38;0.75;;;23.40;79.80;;;;;;7394522;19;20150;-72
2022/06/02 09:29:02;;;;;;;2.45;0.80;;;23.20;80.30;;;;;;7395222;19;20142;-72
2022/06/02 09:32:01;;;;;;;1.17;1.08;;;22.90;81.30;;;;;;7390921;19;20138;-73
2022/06/02 09:35:09;;;;;;;2.80;0.98;;;23.10;81.90;;;;;;7391353;19;20142;-73
2022/06/02 09:37:53;;;;;;;1.13;0.90;;;23.20;81.60;;;;;;7388987;19;20230;-72
2022/06/02 09:40:21;;;;;;;1.52;0.95;;;23.10;81.40;;;;;;7388859;19;20155;-71
2022/06/02 09:43:12;;;;;;;2.13;1.08;;;23.00;81.90;;;;;;7391429;19;20158;-71
2022/06/02 09:46:21;;;;;;;1.27;0.93;;;22.90;82.00;;;;;;7394353;19;20135;-74
2022/06/02 09:48:56;;;;;;;1.13;1.02;;;22.80;81.70;;;;;;7399992;19;20142;-71
2022/06/02 09:51:46;;;;;;;4.00;1.55;;;22.90;82.40;;;;;;7393026;19;20134;-74
2022/06/02 09:54:49;;;;;;;2.15;0.88;;;23.20;80.80;;;;;;7393581;19;20143;-74
2022/06/02 10:00:36;;;;;;;1.52;0.85;;;22.90;80.20;;;;;;7388503;19;20147;-73
2022/06/02 10:03:30;;;;;;;0.98;0.80;;;22.90;80.30;;;;;;7387805;19;20214;-72
2022/06/02 10:06:13;;;;;;;2.20;1.20;;;22.60;82.00;;;;;;7393088;19;20503;-72
2022/06/02 10:09:27;;;;;;;1.17;0.88;;;22.60;82.20;;;;;;7393545;19;20163;-74
2022/06/02 10:15:16;;;;;;;0.80;0.73;;;22.50;82.50;;;;;;7390706;19;20237;-72
2022/06/02 10:18:10;;;;;;;2.65;0.90;;;22.50;83.40;;;;;;7392259;19;20154;-72
2022/06/02 10:21:06;;;;;;;1.25;0.90;;;22.60;83.10;;;;;;7389120;19;20163;-73
2022/06/02 10:23:53;;;;;;;2.53;1.00;;;22.70;82.50;;;;;;7394064;19;20548;-75
2022/06/02 10:26:31;;;;;;;1.48;1.05;;;22.70;82.80;;;;;;7389598;19;20166;-72
2022/06/02 10:29:24;;;;;;;2.08;0.80;;;22.80;82.10;;;;;;7391642;19;20158;-72
2022/06/02 10:32:09;;;;;;;0.80;0.70;;;22.90;81.80;;;;;;7390853;19;20142;-75
2022/06/02 10:34:54;;;;;;;1.00;0.90;;;22.90;82.00;;;;;;7394004;19;20198;-71
2022/06/02 10:37:40;;;;;;;4.75;1.05;;;22.90;83.10;;;;;;7396470;19;20134;-74
2022/06/02 10:40:38;;;;;;;4.93;1.10;;;22.90;83.30;;;;;;7394153;19;20159;-73
2022/06/02 10:43:37;;;;;;;1.70;0.90;;;23.10;83.30;;;;;;7391281;19;20150;-71
2022/06/02 10:46:06;;;;;;;2.65;0.90;;;23.50;81.70;;;;;;7393288;19;20143;-71
2022/06/02 10:48:38;;;;;;;2.55;1.30;;;23.50;80.20;;;;;;7393180;19;20158;-71
2022/06/02 10:51:28;;;;;;;1.10;0.82;;;23.50;81.30;;;;;;7384529;19;20471;-71
2022/06/02 10:54:31;;;;;;;1.00;0.80;;;23.50;81.20;;;;;;7391506;19;20512;-71
2022/06/02 10:57:28;;;;;;;1.80;1.02;;;23.60;81.70;;;;;;7390658;19;20461;-71
2022/06/02 10:59:56;;;;;;;4.47;1.98;;;23.80;80.90;;;;;;7392674;19;20182;-73
2022/06/02 11:02:34;;;;;;;1.63;0.93;;;23.70;81.60;;;;;;7390948;19;20138;-73
2022/06/02 11:05:24;;;;;;;2.28;1.17;;;23.60;81.40;;;;;;7389919;19;20167;-73
2022/06/02 11:08:09;;;;;;;1.83;1.00;;;23.60;81.60;;;;;;7387636;19;20146;-72
2022/06/02 11:11:01;;;;;;;2.75;0.88;;;23.60;81.00;;;;;;7392442;19;20633;-70
2022/06/02 11:13:51;;;;;;;1.67;0.90;;;23.40;81.30;;;;;;7387181;19;20142;-71
2022/06/02 11:16:46;;;;;;;1.92;0.90;;;23.50;81.70;;;;;;7385794;19;20143;-70
2022/06/02 11:19:24;;;;;;;1.50;1.20;;;23.60;82.20;;;;;;7390242;19;20383;-73
2022/06/02 11:22:14;;;;;;;3.45;2.72;;;23.70;81.10;;;;;;7387559;19;20211;-71
2022/06/02 11:25:14;;;;;;;1.60;1.10;;;23.60;81.60;;;;;;7388533;19;20170;-71
2022/06/02 11:28:03;;;;;;;0.80;0.77;;;23.60;81.20;;;;;;7392371;19;20168;-74
2022/06/02 11:30:57;;;;;;;2.92;1.10;;;23.60;81.50;;;;;;7390247;19;20496;-73
2022/06/02 11:33:32;;;;;;;1.88;0.88;;;23.70;81.80;;;;;;7391624;19;20493;-74
2022/06/02 11:36:49;;;;;;;3.00;1.67;;;23.70;81.40;;;;;;7389515;19;20150;-72
2022/06/02 11:39:36;;;;;;;1.08;0.90;;;23.60;81.60;;;;;;7385665;19;20133;-72
2022/06/02 11:42:08;;;;;;;0.77;0.77;;;23.80;81.90;;;;;;7389180;19;20141;-72
2022/06/02 11:44:58;;;;;;;1.25;0.95;;;23.90;81.00;;;;;;7389260;19;20150;-72
2022/06/02 11:47:54;;;;;;;1.20;0.93;;;23.80;81.40;;;;;;7389309;19;20142;-71
2022/06/02 11:50:56;;;;;;;2.55;0.98;;;23.80;81.10;;;;;;7389180;19;20715;-71
2022/06/02 11:53:22;;;;;;;2.08;0.93;;;23.70;81.20;;;;;;7388938;19;20613;-72
2022/06/02 11:56:29;;;;;;;1.90;1.10;;;23.60;81.40;;;;;;7388197;19;20151;-72
2022/06/02 11:59:27;;;;;;;1.23;1.00;;;23.70;81.90;;;;;;7390012;19;20176;-70
2022/06/02 12:01:59;;;;;;;5.53;2.65;;;23.80;81.60;;;;;;7387056;19;20475;-71
2022/06/02 12:04:46;;;;;;;2.47;2.10;;;24.00;81.00;;;;;;7385962;19;20166;-73
2022/06/02 12:07:24;;;;;;;1.65;1.15;;;24.10;80.50;;;;;;7386696;19;20134;-73
2022/06/02 12:10:02;;;;;;;3.45;2.00;;;24.10;80.40;;;;;;7383023;19;20134;-72
2022/06/02 12:12:57;;;;;;;3.35;0.90;;;24.10;80.70;;;;;;7386494;19;20138;-72
2022/06/02 12:15:37;;;;;;;5.75;1.83;;;24.00;80.70;;;;;;7386554;19;20218;-74
2022/06/02 12:18:31;;;;;;;2.83;1.83;;;24.10;81.20;;;;;;7382123;19;20511;-74
2022/06/02 12:21:10;;;;;;;2.85;2.15;;;24.10;81.10;;;;;;7388916;19;20143;-72
2022/06/02 12:23:46;;;;;;;2.35;1.35;;;24.20;81.40;;;;;;7386459;19;20145;-72
2022/06/02 12:26:30;;;;;;;2.78;1.10;;;24.10;81.50;;;;;;7386779;19;20586;-72
2022/06/02 12:29:13;;;;;;;1.25;0.93;;;24.10;81.70;;;;;;7386024;19;20228;-74
2022/06/02 12:32:01;;;;;;;4.45;1.10;;;24.10;82.00;;;;;;7387270;19;20622;-71
2022/06/02 12:34:43;;;;;;;2.03;1.27;;;24.20;81.50;;;;;;7386488;19;20155;-71
2022/06/02 12:37:20;;;;;;;0.70;0.70;;;24.20;81.30;;;;;;7387425;19;20147;-71
2022/06/02 12:40:10;;;;;;;2.47;0.80;;;24.10;81.60;;;;;;7388343;19;20222;-73
2022/06/02 12:42:57;;;;;;;1.20;0.90;;;24.20;81.40;;;;;;7386641;19;20513;-73
2022/06/02 12:45:29;;;;;;;1.77;1.08;;;24.20;81.40;;;;;;7393686;19;20520;-72
2022/06/02 12:48:25;;;;;;;1.20;1.10;;;24.10;81.90;;;;;;7394740;19;20130;-73
2022/06/02 12:51:02;;;;;;;1.30;1.20;;;24.10;81.60;;;;;;7397297;19;20146;-72
2022/06/02 12:54:08;;;;;;;2.25;1.33;;;24.10;81.70;;;;;;7396301;19;20131;-71
2022/06/02 12:57:11;;;;;;;1.80;1.10;;;24.10;81.70;;;;;;7396249;19;20134;-72
2022/06/02 13:00:16;;;;;;;2.08;1.15;;;24.10;81.90;;;;;;7399451;19;20505;-72
2022/06/02 13:03:18;;;;;;;2.50;1.67;;;24.10;82.40;;;;;;7394071;19;20146;-72
2022/06/02 13:06:14;;;;;;;2.80;0.70;;;24.20;82.00;;;;;;7396652;19;20173;-73
2022/06/02 13:09:24;;;;;;;2.10;1.10;;;24.30;81.90;;;;;;7395008;19;20669;-73
2022/06/02 13:12:15;;;;;;;1.73;0.88;;;24.40;81.60;;;;;;7391843;19;20146;-73
2022/06/02 13:15:05;;;;;;;3.75;2.88;;;24.50;81.10;;;;;;7395095;19;20158;-72
2022/06/02 13:17:52;;;;;;;2.72;1.00;;;24.50;81.60;;;;;;7393926;19;20162;-73
2022/06/02 13:20:31;;;;;;;0.90;0.90;;;24.60;81.30;;;;;;7394572;19;20147;-73
2022/06/02 13:23:11;;;;;;;1.35;1.25;;;24.60;81.10;;;;;;7394097;19;20606;-73
2022/06/02 13:26:06;;;;;;;2.90;1.80;;;24.50;81.20;;;;;;7395318;19;20180;-72
2022/06/02 13:28:45;;;;;;;1.67;1.35;;;24.50;81.40;;;;;;7393417;19;20528;-73
2022/06/02 13:32:08;;;;;;;1.10;1.00;;;24.50;81.50;;;;;;7396041;19;20138;-73
2022/06/02 13:34:54;;;;;;;1.17;0.95;;;24.40;81.60;;;;;;7391739;19;20170;-71
2022/06/02 13:37:40;;;;;;;1.98;1.20;;;24.20;81.50;;;;;;7391590;19;20171;-71
2022/06/02 13:40:39;;;;;;;1.58;1.08;;;24.10;82.20;;;;;;7392396;19;20592;-70
2022/06/02 13:43:13;;;;;;;3.10;1.08;;;24.10;82.60;;;;;;7393435;19;20150;-71
2022/06/02 13:45:54;;;;;;;2.03;1.08;;;24.10;82.20;;;;;;7394774;19;20186;-70
2022/06/02 13:48:38;;;;;;;3.38;1.00;;;24.10;82.00;;;;;;7393983;19;20147;-71
2022/06/02 13:51:48;;;;;;;1.20;1.10;;;24.00;82.10;;;;;;7394876;19;20149;-71
2022/06/02 13:57:31;;;;;;;2.65;1.30;;;24.10;82.50;;;;;;7393796;19;20137;-72
2022/06/02 14:00:09;;;;;;;1.55;1.08;;;24.10;83.40;;;;;;7394360;19;20138;-71
2022/06/02 14:02:41;;;;;;;3.13;1.17;;;24.20;82.80;;;;;;7393876;19;20150;-72
2022/06/02 14:05:20;;;;;;;1.52;1.00;;;24.10;82.80;;;;;;7390213;19;20151;-71
2022/06/02 14:07:46;;;;;;;1.85;1.10;;;23.90;83.10;;;;;;7390812;19;20496;-72
2022/06/02 14:10:24;;;;;;;2.35;1.60;;;24.00;82.90;;;;;;7390553;19;20149;-73
2022/06/02 14:13:09;;;;;;;1.42;1.00;;;24.10;82.70;;;;;;7392385;19;20130;-72
2022/06/02 14:16:01;;;;;;;1.42;1.17;;;24.20;82.50;;;;;;7393663;19;20134;-72
2022/06/02 14:18:51;;;;;;;2.10;1.20;;;24.30;82.50;;;;;;7395515;19;20131;-72
2022/06/02 14:21:31;;;;;;;3.33;0.90;;;24.30;82.40;;;;;;7392641;19;20137;-71
2022/06/02 14:23:57;;;;;;;1.20;0.70;;;24.20;82.40;;;;;;7392613;19;20248;-73
2022/06/02 14:26:32;;;;;;;1.45;0.88;;;24.30;82.80;;;;;;7391899;19;20161;-71
2022/06/02 14:29:01;;;;;;;1.35;0.90;;;24.30;82.60;;;;;;7394232;19;20138;-71
2022/06/02 14:31:36;;;;;;;1.45;0.90;;;24.30;82.70;;;;;;7392002;19;20147;-70
2022/06/02 14:34:21;;;;;;;1.92;1.27;;;24.20;82.70;;;;;;7395022;19;20586;-72
2022/06/02 14:37:04;;;;;;;1.60;0.93;;;24.10;82.90;;;;;;7392622;19;20145;-71
2022/06/02 14:39:55;;;;;;;1.00;0.90;;;24.10;83.20;;;;;;7388563;19;20151;-72
2022/06/02 14:43:03;;;;;;;1.20;0.90;;;24.00;83.60;;;;;;7391098;19;20149;-72
2022/06/02 14:45:30;;;;;;;1.13;0.70;;;24.00;83.50;;;;;;7392315;19;20138;-71
2022/06/02 14:48:26;;;;;;;1.65;1.10;;;23.90;84.00;;;;;;7391495;19;20129;-71